createdAt,value
2022-11-05T00:01:45.850Z,1
2022-11-05T00:03:37.685Z,1
2022-11-05T00:05:38.219Z,1
2022-11-05T00:07:38.697Z,1
2022-11-05T00:09:38.294Z,1
2022-11-05T00:11:38.123Z,1
2022-11-05T00:13:38.167Z,1
2022-11-05T00:15:41.735Z,1
2022-11-05T00:21:38.457Z,1
2022-11-05T00:23:41.699Z,1
2022-11-05T00:25:37.747Z,1
2022-11-05T00:27:38.160Z,1
2022-11-05T00:29:41.849Z,1
2022-11-05T00:31:38.250Z,1
2022-11-05T00:33:37.702Z,1
2022-11-05T00:35:38.213Z,1
2022-11-05T00:37:37.724Z,1
2022-11-05T00:39:37.607Z,1
2022-11-05T00:41:38.479Z,1
2022-11-05T00:43:37.729Z,1
2022-11-05T00:45:38.492Z,1
2022-11-05T00:47:37.796Z,1
2022-11-05T00:49:41.761Z,1
2022-11-05T00:51:44.795Z,1
2022-11-05T00:53:37.839Z,1
2022-11-05T00:55:37.620Z,1
2022-11-05T00:57:37.924Z,1
2022-11-05T00:59:38.294Z,1
2022-11-05T01:01:38.553Z,1
2022-11-05T01:03:38.717Z,1
2022-11-05T01:05:37.934Z,1
2022-11-05T01:07:45.408Z,1
2022-11-05T01:09:45.293Z,1
2022-11-05T01:11:38.315Z,1
2022-11-05T01:13:38.168Z,1
2022-11-05T01:15:41.933Z,1
2022-11-05T01:17:38.114Z,1
2022-11-05T01:19:44.953Z,1
2022-11-05T01:21:38.446Z,1
2022-11-05T01:23:44.767Z,1
2022-11-05T01:25:38.215Z,1
2022-11-05T01:27:38.078Z,1
2022-11-05T01:29:38.766Z,1
2022-11-05T01:31:43.162Z,1
2022-11-05T01:33:37.769Z,1
2022-11-05T01:35:38.646Z,1
2022-11-05T01:37:37.818Z,1
2022-11-05T01:39:37.797Z,1
2022-11-05T01:41:38.434Z,1
2022-11-05T01:43:37.621Z,1
2022-11-05T01:45:37.829Z,1
2022-11-05T01:47:40.033Z,1
2022-11-05T01:51:38.431Z,1
2022-11-05T01:53:37.797Z,1
2022-11-05T01:55:38.327Z,1
2022-11-05T01:57:38.358Z,1
2022-11-05T01:59:38.011Z,1
2022-11-05T02:01:41.861Z,1
2022-11-05T02:03:41.657Z,1
2022-11-05T02:05:37.762Z,1
2022-11-05T02:07:41.713Z,1
2022-11-05T02:09:37.772Z,1
2022-11-05T02:11:37.772Z,1
2022-11-05T02:13:41.924Z,1
2022-11-05T02:15:37.864Z,1
2022-11-05T02:17:38.288Z,1
2022-11-05T02:19:44.876Z,1
2022-11-05T02:21:37.639Z,1
2022-11-05T02:23:37.656Z,1
2022-11-05T02:25:41.883Z,1
2022-11-05T02:27:38.626Z,1
2022-11-05T02:29:37.753Z,1
2022-11-05T02:31:41.923Z,1
2022-11-05T02:33:37.629Z,1
2022-11-05T02:35:44.974Z,1
2022-11-05T02:37:41.649Z,1
2022-11-05T02:39:37.862Z,1
2022-11-05T02:41:38.369Z,1
2022-11-05T02:43:38.353Z,1
2022-11-05T02:45:43.648Z,1
2022-11-05T02:47:38.345Z,1
2022-11-05T02:49:44.866Z,1
2022-11-05T02:51:38.309Z,1
2022-11-05T02:53:38.566Z,1
2022-11-05T02:55:38.206Z,1
2022-11-05T02:57:44.932Z,1
2022-11-05T02:59:41.821Z,1
2022-11-05T03:01:38.465Z,1
2022-11-05T03:03:37.745Z,1
2022-11-05T03:05:38.312Z,1
2022-11-05T03:07:37.741Z,1
2022-11-05T03:09:44.971Z,1
2022-11-05T03:11:37.665Z,1
2022-11-05T03:13:41.684Z,1
2022-11-05T03:17:38.436Z,1
2022-11-05T03:19:37.726Z,1
2022-11-05T03:21:44.867Z,1
2022-11-05T03:23:38.542Z,1
2022-11-05T03:25:38.286Z,1
2022-11-05T03:27:41.828Z,1
2022-11-05T03:29:37.913Z,1
2022-11-05T03:31:41.847Z,1
2022-11-05T03:33:41.534Z,1
2022-11-05T03:35:44.897Z,1
2022-11-05T03:37:41.475Z,1
2022-11-05T03:39:37.917Z,1
2022-11-05T03:41:38.287Z,1
2022-11-05T03:43:38.337Z,1
2022-11-05T03:45:38.267Z,1
2022-11-05T03:47:38.281Z,1
2022-11-05T03:49:37.741Z,1
2022-11-05T03:51:39.944Z,1
2022-11-05T03:53:38.261Z,1
2022-11-05T03:55:41.804Z,1
2022-11-05T03:57:41.812Z,1
2022-11-05T03:59:37.889Z,1
2022-11-05T04:01:38.533Z,1
2022-11-05T04:03:40.058Z,1
2022-11-05T04:05:45.050Z,1
2022-11-05T04:07:37.749Z,1
2022-11-05T04:09:42.060Z,1
2022-11-05T04:11:38.314Z,1
2022-11-05T04:13:41.456Z,1
2022-11-05T04:15:38.459Z,1
2022-11-05T04:17:37.790Z,1
2022-11-05T04:19:44.957Z,1
2022-11-05T04:21:38.255Z,1
2022-11-05T04:23:37.924Z,1
2022-11-05T04:25:46.119Z,1
2022-11-05T04:27:41.704Z,1
2022-11-05T04:29:38.691Z,1
2022-11-05T04:31:37.780Z,1
2022-11-05T04:33:37.667Z,1
2022-11-05T04:35:41.854Z,1
2022-11-05T04:37:41.425Z,1
2022-11-05T04:39:38.290Z,1
2022-11-05T04:41:37.984Z,1
2022-11-05T04:43:38.694Z,1
2022-11-05T04:47:44.945Z,1
2022-11-05T04:49:38.265Z,1
2022-11-05T04:51:45.023Z,1
2022-11-05T04:53:38.399Z,1
2022-11-05T04:55:39.898Z,1
2022-11-05T05:01:37.788Z,1
2022-11-05T05:05:41.652Z,1
2022-11-05T05:07:38.448Z,1
2022-11-05T05:09:38.474Z,1
2022-11-05T05:11:37.905Z,1
2022-11-05T05:13:37.683Z,1
2022-11-05T05:15:41.671Z,1
2022-11-05T05:17:38.391Z,1
2022-11-05T05:19:38.533Z,1
2022-11-05T05:21:38.310Z,1
2022-11-05T05:23:38.642Z,1
2022-11-05T05:25:38.164Z,1
2022-11-05T05:27:38.454Z,1
2022-11-05T05:29:42.329Z,0
2022-11-05T05:31:37.695Z,0
2022-11-05T05:33:44.957Z,0.1
2022-11-05T05:35:37.716Z,0.2
2022-11-05T05:37:41.851Z,0.3
2022-11-05T05:39:37.777Z,0.4
2022-11-05T05:41:43.396Z,0.6
2022-11-05T05:43:41.737Z,0.8
2022-11-05T05:45:41.919Z,1.2
2022-11-05T05:47:38.255Z,1.7
2022-11-05T05:49:41.884Z,2.3
2022-11-05T05:51:38.070Z,3.3
2022-11-05T05:53:41.378Z,5.2
2022-11-05T05:55:37.687Z,7
2022-11-05T05:57:38.203Z,9
2022-11-05T05:59:41.938Z,11.6
2022-11-05T06:01:38.191Z,13.5
2022-11-05T06:03:38.426Z,16.4
2022-11-05T06:05:38.467Z,17.3
2022-11-05T06:07:38.299Z,19.1
2022-11-05T06:09:38.305Z,22.2
2022-11-05T06:11:38.678Z,24.5
2022-11-05T06:13:41.776Z,31.5
2022-11-05T06:15:41.794Z,38.5
2022-11-05T06:17:37.830Z,44.7
2022-11-05T06:19:38.351Z,51.9
2022-11-05T06:21:38.676Z,57.4
2022-11-05T06:23:41.899Z,66.7
2022-11-05T06:25:41.136Z,73.7
2022-11-05T06:27:41.693Z,81.5
2022-11-05T06:29:38.516Z,90
2022-11-05T06:31:38.441Z,94.6
2022-11-05T06:33:38.340Z,99.5
2022-11-05T06:35:38.477Z,104.6
2022-11-05T06:37:37.792Z,115.6
2022-11-05T06:39:39.618Z,134.3
2022-11-05T06:41:50.918Z,141.2
2022-11-05T06:43:41.788Z,156
2022-11-05T06:45:41.612Z,181.3
2022-11-05T06:47:37.824Z,232.8
2022-11-05T06:49:38.481Z,257.2
2022-11-05T06:51:37.745Z,284.3
2022-11-05T06:53:41.843Z,314.2
2022-11-05T06:55:38.250Z,330.3
2022-11-05T06:57:44.987Z,314.2
2022-11-05T06:59:41.467Z,298.9
2022-11-05T07:01:37.964Z,298.9
2022-11-05T07:03:38.392Z,314.2
2022-11-05T07:05:41.733Z,365
2022-11-05T07:07:38.396Z,424.1
2022-11-05T07:09:37.800Z,492.7
2022-11-05T07:11:41.962Z,572.5
2022-11-05T07:13:38.509Z,699.2
2022-11-05T07:15:41.605Z,812.4
2022-11-05T07:17:38.327Z,897.8
2022-11-05T07:19:41.763Z,1096.6
2022-11-05T07:21:37.838Z,1152.9
2022-11-05T07:23:38.698Z,1212
2022-11-05T07:25:38.576Z,992.3
2022-11-05T07:27:38.093Z,943.9
2022-11-05T07:29:38.322Z,943.9
2022-11-05T07:31:38.040Z,992.3
2022-11-05T07:35:41.914Z,897.8
2022-11-05T07:37:37.787Z,812.4
2022-11-05T07:39:38.542Z,601.8
2022-11-05T07:41:42.682Z,518
2022-11-05T07:43:38.504Z,544.6
2022-11-05T07:45:38.434Z,601.8
2022-11-05T07:47:38.609Z,632.7
2022-11-05T07:49:38.358Z,699.2
2022-11-05T07:51:37.906Z,772.8
2022-11-05T07:53:42.501Z,897.8
2022-11-05T07:55:37.781Z,812.4
2022-11-05T07:57:38.321Z,735.1
2022-11-05T07:59:38.426Z,699.2
2022-11-05T08:01:39.191Z,812.4
2022-11-05T08:03:41.928Z,992.3
2022-11-05T08:05:37.864Z,1274.1
2022-11-05T08:07:38.279Z,1480.3
2022-11-05T08:09:37.766Z,1408.1
2022-11-05T08:13:50.159Z,992.3
2022-11-05T08:18:54.545Z,992.3
2022-11-05T08:22:27.241Z,1212
2022-11-05T08:24:26.282Z,1274.1
2022-11-05T08:28:44.312Z,1480.3
2022-11-05T08:30:40.430Z,1556.2
2022-11-05T08:33:11.303Z,1212
2022-11-05T08:35:07.161Z,1043.1
2022-11-05T08:40:12.250Z,468.7
2022-11-05T08:42:07.505Z,383.8
2022-11-05T08:46:54.420Z,772.8
2022-11-05T08:48:52.977Z,1096.6
2022-11-05T08:55:01.793Z,1274.1
2022-11-05T08:55:05.790Z,1408.1
2022-11-05T08:57:06.208Z,1408.1
2022-11-05T08:59:57.849Z,1043.1
2022-11-05T09:04:10.407Z,897.8
2022-11-05T09:08:20.414Z,943.9
2022-11-05T09:14:18.851Z,1719.9
2022-11-05T09:18:17.972Z,1900.7
2022-11-05T09:26:21.720Z,1900.7
2022-11-05T09:30:24.238Z,2321.6
2022-11-05T09:33:30.919Z,2835.6
2022-11-05T09:36:38.783Z,2697.3
2022-11-05T09:38:50.281Z,2835.6
2022-11-05T09:43:20.482Z,4023.9
2022-11-05T09:53:32.165Z,8518.5
2022-11-05T09:55:29.338Z,10404.6
2022-11-05T09:58:53.916Z,5166.8
2022-11-05T10:00:53.036Z,4914.8
2022-11-05T10:05:46.574Z,3463.4
2022-11-05T10:17:40.237Z,1152.9
2022-11-05T10:22:58.922Z,2100.6
2022-11-05T10:24:53.895Z,2321.6
2022-11-05T10:27:26.945Z,3294.5
2022-11-05T10:30:24.232Z,4023.9
2022-11-05T10:34:37.436Z,4675.1
2022-11-05T10:38:44.404Z,5431.7
2022-11-05T10:42:58.236Z,5166.8
2022-11-05T10:46:47.458Z,3294.5
2022-11-05T10:53:49.916Z,2321.6
2022-11-05T10:55:49.616Z,2100.6
2022-11-05T11:03:22.701Z,1998.2
2022-11-05T11:12:01.620Z,2208.3
2022-11-05T11:12:07.491Z,2440.6
2022-11-05T11:18:28.247Z,3463.4
2022-11-05T11:24:00.381Z,5431.7
2022-11-05T11:24:07.021Z,8518.5
2022-11-05T11:28:06.478Z,15521.8
2022-11-05T11:32:34.295Z,17154.2
2022-11-05T11:32:39.304Z,10938
2022-11-05T11:35:48.403Z,7707.9
2022-11-05T11:37:53.837Z,5710.1
2022-11-05T11:42:18.275Z,4914.8
2022-11-05T11:44:18.192Z,4675.1
2022-11-05T11:48:54.861Z,12088.4
2022-11-05T11:50:31.673Z,9897.1
2022-11-05T11:54:19.425Z,5710.1
2022-11-05T11:57:43.748Z,4914.8
2022-11-05T12:06:19.158Z,4023.9
2022-11-05T12:06:23.561Z,2565.7
2022-11-05T12:15:07.351Z,1408.1
2022-11-05T12:26:05.304Z,1636
2022-11-05T12:33:23.708Z,1719.9
2022-11-05T12:33:27.613Z,1719.9
2022-11-05T12:45:53.935Z,1556.2
2022-11-05T12:45:57.405Z,1480.3
2022-11-05T12:49:16.358Z,1480.3
2022-11-05T13:01:30.808Z,1480.3
2022-11-05T13:01:35.406Z,1480.3
2022-11-05T13:04:18.482Z,1480.3
2022-11-05T13:11:43.739Z,1636
2022-11-05T13:11:47.124Z,1636
2022-11-05T13:15:57.831Z,1274.1
2022-11-05T13:16:03.879Z,1274.1
2022-11-05T13:19:43.988Z,992.3
2022-11-05T13:21:47.256Z,812.4
2022-11-05T13:26:31.156Z,518
2022-11-05T13:28:21.783Z,518
2022-11-05T13:30:18.186Z,544.6
2022-11-05T13:37:30.677Z,632.7
2022-11-05T13:45:27.063Z,735.1
2022-11-05T13:45:30.539Z,735.1
2022-11-05T13:47:15.612Z,735.1
2022-11-05T13:53:33.682Z,897.8
2022-11-05T13:57:58.679Z,1152.9
2022-11-05T14:00:02.034Z,1339.4
2022-11-05T14:02:18.419Z,1636
2022-11-05T14:04:31.847Z,1900.7
2022-11-05T14:06:30.210Z,2208.3
2022-11-05T14:08:27.413Z,2565.7
2022-11-05T14:10:27.161Z,3133.8
2022-11-05T14:16:01.199Z,3294.5
2022-11-05T14:17:57.351Z,2835.6
2022-11-05T14:20:07.685Z,2835.6
2022-11-05T14:22:07.065Z,2697.3
2022-11-05T14:24:10.459Z,1900.7
2022-11-05T14:29:26.781Z,812.4
2022-11-05T14:34:25.331Z,665.1
2022-11-05T14:39:51.603Z,330.3
2022-11-05T14:44:18.271Z,156
2022-11-05T14:46:47.165Z,221.4
2022-11-05T14:48:46.317Z,330.3
2022-11-05T14:52:36.672Z,445.9
2022-11-05T14:54:36.463Z,424.1
2022-11-05T15:02:49.224Z,445.9
2022-11-05T15:04:47.623Z,468.7
2022-11-05T15:09:24.222Z,468.7
2022-11-05T15:11:17.432Z,445.9
2022-11-05T15:13:25.869Z,365
2022-11-05T15:15:24.370Z,314.2
2022-11-05T15:17:27.872Z,270.4
2022-11-05T15:20:26.945Z,244.7
2022-11-05T15:22:20.494Z,221.4
2022-11-05T15:24:38.459Z,200.3
2022-11-05T15:26:47.485Z,190.6
2022-11-05T15:29:17.459Z,200.3
2022-11-05T15:31:18.327Z,210.6
2022-11-05T15:33:17.357Z,221.4
2022-11-05T15:35:16.401Z,210.6
2022-11-05T15:37:20.242Z,190.6
2022-11-05T15:39:28.797Z,148.4
2022-11-05T15:41:46.826Z,127.7
2022-11-05T15:43:49.556Z,109.9
2022-11-05T15:45:46.464Z,94.6
2022-11-05T15:47:49.194Z,81.5
2022-11-05T15:50:42.637Z,66.7
2022-11-05T15:52:34.077Z,54.6
2022-11-05T15:56:31.330Z,34.8
2022-11-05T15:57:32.738Z,31.5
2022-11-05T16:00:35.064Z,22.2
2022-11-05T16:02:35.655Z,17.3
2022-11-05T16:04:35.073Z,13.5
2022-11-05T16:06:52.262Z,10
2022-11-05T16:08:52.893Z,7.8
2022-11-05T16:10:56.417Z,5.5
2022-11-05T16:12:52.459Z,3.7
2022-11-05T16:16:52.657Z,1.6
2022-11-05T16:18:52.317Z,1.2
2022-11-05T16:22:13.099Z,0.5
2022-11-05T16:24:06.814Z,0.4
2022-11-05T16:27:02.583Z,0.2
2022-11-05T16:28:32.748Z,0.2
2022-11-05T16:30:29.498Z,0.1
2022-11-05T16:32:30.111Z,0
2022-11-05T16:34:57.453Z,0
2022-11-05T16:36:59.977Z,0
2022-11-05T16:41:00.287Z,1
2022-11-05T16:43:52.903Z,1
2022-11-05T16:45:51.636Z,1
2022-11-05T16:49:42.721Z,1
2022-11-05T16:51:54.852Z,1
2022-11-05T16:54:18.895Z,1
2022-11-05T16:56:08.226Z,1
2022-11-05T17:00:51.188Z,1
2022-11-05T17:02:49.865Z,1
2022-11-05T17:04:50.474Z,1
2022-11-05T17:06:50.480Z,1
2022-11-05T17:13:56.984Z,1
2022-11-05T17:14:04.198Z,1
2022-11-05T17:15:59.992Z,1
2022-11-05T17:19:55.187Z,1
2022-11-05T17:24:36.971Z,1
2022-11-05T17:33:28.855Z,1
2022-11-05T17:36:53.981Z,1
2022-11-05T17:38:50.422Z,1
2022-11-05T17:40:46.945Z,1
2022-11-05T17:44:19.329Z,1
2022-11-05T17:48:09.950Z,1
2022-11-05T17:50:12.624Z,1
2022-11-05T17:52:08.859Z,1
2022-11-05T17:54:09.606Z,1
2022-11-05T17:58:08.942Z,1
2022-11-05T18:00:23.236Z,1
2022-11-05T18:04:47.060Z,1
2022-11-05T18:05:14.227Z,1
2022-11-05T18:08:47.170Z,1
2022-11-05T18:12:14.822Z,1
2022-11-05T18:16:46.516Z,1
2022-11-05T18:21:10.077Z,1
2022-11-05T18:23:06.438Z,1
2022-11-05T18:25:06.015Z,1
2022-11-05T18:27:06.429Z,0
2022-11-05T18:29:09.850Z,1
2022-11-05T18:34:00.696Z,1
2022-11-05T18:39:58.302Z,1
2022-11-05T18:46:24.035Z,1
2022-11-05T18:48:07.351Z,1
2022-11-05T18:51:11.281Z,1
2022-11-05T18:53:06.981Z,1
2022-11-05T19:01:08.156Z,1
2022-11-05T19:03:01.095Z,1
2022-11-05T19:06:08.000Z,1
2022-11-05T19:11:34.069Z,1
2022-11-05T19:16:49.184Z,1
2022-11-05T19:20:11.170Z,1
2022-11-05T19:22:46.904Z,1
2022-11-05T19:24:26.118Z,1
2022-11-05T19:26:36.584Z,1
2022-11-05T19:30:56.273Z,1
2022-11-05T19:32:58.291Z,1
2022-11-05T19:34:57.097Z,1
2022-11-05T19:37:47.204Z,1
2022-11-05T19:39:44.858Z,1
2022-11-05T19:42:11.692Z,0
2022-11-05T19:44:11.032Z,1
2022-11-05T19:53:25.839Z,1
2022-11-05T19:55:26.152Z,1
2022-11-05T19:58:36.649Z,1
2022-11-05T20:00:38.302Z,1
2022-11-05T20:04:20.052Z,1
2022-11-05T20:06:26.596Z,0
2022-11-05T20:08:20.094Z,1
2022-11-05T20:12:31.561Z,0
2022-11-05T20:20:32.098Z,0
2022-11-05T20:24:13.252Z,0
2022-11-05T20:26:00.750Z,0
2022-11-05T20:28:09.331Z,0
2022-11-05T20:32:37.790Z,0
2022-11-05T20:34:37.373Z,1
2022-11-05T20:37:00.029Z,1
2022-11-05T20:41:14.779Z,1
2022-11-05T20:42:58.472Z,1
2022-11-05T20:47:24.415Z,1
2022-11-05T20:47:35.301Z,1
2022-11-05T20:51:20.680Z,1
2022-11-05T20:55:21.499Z,1
2022-11-05T20:57:20.368Z,1
2022-11-05T20:59:20.893Z,0
2022-11-05T21:01:43.236Z,0
2022-11-05T21:05:55.961Z,0
2022-11-05T21:06:03.367Z,0
2022-11-05T21:07:57.671Z,0
2022-11-05T21:11:26.405Z,1
2022-11-05T21:15:09.237Z,0
2022-11-05T21:23:20.809Z,0
2022-11-05T21:23:23.840Z,1
2022-11-05T21:27:01.399Z,1
2022-11-05T21:30:22.491Z,1
2022-11-05T21:38:17.156Z,1
2022-11-05T21:38:26.524Z,1
2022-11-05T21:43:38.924Z,1
2022-11-05T21:45:37.931Z,1
2022-11-05T21:47:37.576Z,1
2022-11-05T21:51:46.067Z,1
2022-11-05T22:01:12.780Z,1
2022-11-05T22:02:10.450Z,1
2022-11-05T22:04:12.498Z,1
2022-11-05T22:06:12.553Z,1
2022-11-05T22:10:04.074Z,1
2022-11-05T22:12:47.155Z,1
2022-11-05T22:17:36.477Z,1
2022-11-05T22:24:49.210Z,1
2022-11-05T22:28:19.354Z,1
2022-11-05T22:30:18.386Z,1
2022-11-05T22:34:34.795Z,1
2022-11-05T22:36:08.364Z,1
2022-11-05T22:39:10.554Z,1
2022-11-05T22:42:46.714Z,1
2022-11-05T22:44:46.957Z,1
2022-11-05T22:50:32.755Z,1
2022-11-05T22:53:40.687Z,1
2022-11-05T22:56:58.871Z,1
2022-11-05T22:58:57.231Z,1
2022-11-05T23:01:13.412Z,1
2022-11-05T23:03:22.189Z,1
2022-11-05T23:05:15.714Z,1
2022-11-05T23:07:27.216Z,1
2022-11-05T23:14:02.173Z,1
2022-11-05T23:14:10.144Z,1
2022-11-05T23:16:07.660Z,1
2022-11-05T23:18:40.031Z,1
2022-11-05T23:20:39.573Z,1
2022-11-05T23:24:31.788Z,1
2022-11-05T23:32:39.187Z,1
2022-11-05T23:32:44.425Z,1
2022-11-05T23:36:17.776Z,1
2022-11-05T23:42:07.065Z,1
2022-11-05T23:48:23.340Z,1
2022-11-05T23:52:05.780Z,1
2022-11-05T23:53:58.748Z,1
2022-11-05T23:57:47.439Z,1
